createdAt,value
2014-08-13T00:00:38.728Z,63.44
2014-08-13T00:01:42.715Z,63.7
2014-08-13T00:02:47.701Z,63.21
2014-08-13T00:03:52.375Z,63.2
2014-08-13T00:04:57.361Z,63.47
2014-08-13T00:06:02.051Z,63.43
2014-08-13T00:07:07.038Z,63.33
2014-08-13T00:08:12.305Z,63.49
2014-08-13T00:09:16.994Z,63.18
2014-08-13T00:10:21.699Z,63.33
2014-08-13T00:11:26.374Z,63.53
2014-08-13T00:12:31.063Z,63.38
2014-08-13T00:13:35.753Z,64.49
2014-08-13T00:14:40.427Z,63.53
2014-08-13T00:15:45.413Z,64.07
2014-08-13T00:16:50.103Z,64.32
2014-08-13T00:17:54.776Z,64.49
2014-08-13T00:18:59.764Z,64.52
2014-08-13T00:20:04.452Z,65.12
2014-08-13T00:21:09.126Z,64.64
2014-08-13T00:22:13.816Z,64.04
2014-08-13T00:23:18.505Z,64.09
2014-08-13T00:24:23.180Z,64.78
2014-08-13T00:25:27.869Z,64.85
2014-08-13T00:26:32.542Z,65.34
2014-08-13T00:27:37.232Z,65.43
2014-08-13T00:28:41.907Z,65.18
2014-08-13T00:29:46.596Z,64.99
2014-08-13T00:30:51.270Z,64.75
2014-08-13T00:31:55.960Z,64.94
2014-08-13T00:33:01.227Z,65.69
2014-08-13T00:34:05.917Z,65.41
2014-08-13T00:35:10.903Z,65.22
2014-08-13T00:36:15.873Z,65.28
2014-08-13T00:37:20.563Z,65.17
2014-08-13T00:38:25.237Z,65.5
2014-08-13T00:39:30.224Z,65.1
2014-08-13T00:40:35.194Z,65.28
2014-08-13T00:41:40.181Z,65.08
2014-08-13T00:42:44.870Z,65.46
2014-08-13T00:43:49.841Z,64.85
2014-08-13T00:44:53.844Z,65.04
2014-08-13T00:45:58.534Z,65.12
2014-08-13T00:47:03.520Z,65.1
2014-08-13T00:48:08.491Z,64.85
2014-08-13T00:49:13.476Z,65.69
2014-08-13T00:50:18.463Z,66.21
2014-08-13T00:51:23.153Z,65.73
2014-08-13T00:52:27.827Z,65.48
2014-08-13T00:53:32.516Z,66.47
2014-08-13T00:54:37.190Z,66.34
2014-08-13T00:55:42.473Z,65.66
2014-08-13T00:56:47.163Z,65.4
2014-08-13T00:57:51.852Z,65.19
2014-08-13T00:58:56.824Z,65.26
2014-08-13T01:00:02.106Z,65.07
2014-08-13T01:01:06.796Z,65.41
2014-08-13T01:02:11.782Z,66.75
2014-08-13T01:03:16.456Z,66.96
2014-08-13T01:04:21.131Z,66.9
2014-08-13T01:05:26.117Z,67.14
2014-08-13T01:06:30.807Z,66.48
2014-08-13T01:07:35.480Z,65.85
2014-08-13T01:08:40.170Z,65.43
2014-08-13T01:09:44.843Z,65.28
2014-08-13T01:10:49.534Z,65.43
2014-08-13T01:11:54.208Z,65.58
2014-08-13T01:12:59.194Z,65.6
2014-08-13T01:14:04.165Z,65.71
2014-08-13T01:15:08.854Z,65.68
2014-08-13T01:16:13.544Z,65.87
2014-08-13T01:17:18.530Z,65.77
2014-08-13T01:18:23.205Z,65.5
2014-08-13T01:19:28.192Z,65.21
2014-08-13T01:20:32.866Z,65.32
2014-08-13T01:21:37.556Z,65.08
2014-08-13T01:22:42.230Z,66.51
2014-08-13T01:23:46.919Z,66.83
2014-08-13T01:24:51.593Z,67.2
2014-08-13T01:25:56.282Z,67.83
2014-08-13T01:27:00.956Z,66.77
2014-08-13T01:28:05.943Z,67.09
2014-08-13T01:29:10.633Z,67.38
2014-08-13T01:30:15.307Z,67.35
2014-08-13T01:31:19.997Z,67.62
2014-08-13T01:32:24.670Z,67.72
2014-08-13T01:33:29.360Z,67.52
2014-08-13T01:34:34.048Z,67.79
2014-08-13T01:35:39.019Z,67.33
2014-08-13T01:36:44.007Z,67.79
2014-08-13T01:37:48.993Z,67.16
2014-08-13T01:38:53.667Z,67.15
2014-08-13T01:39:58.356Z,67.91
2014-08-13T01:41:03.046Z,67.08
2014-08-13T01:42:08.017Z,67.06
2014-08-13T01:43:12.706Z,66.62
2014-08-13T01:44:17.396Z,66.41
2014-08-13T01:45:22.069Z,67.06
2014-08-13T01:46:27.056Z,66.91
2014-08-13T01:47:32.042Z,67.07
2014-08-13T01:48:37.310Z,66.7
2014-08-13T01:49:41.999Z,67.09
2014-08-13T01:50:46.673Z,68.04
2014-08-13T01:51:51.364Z,67.31
2014-08-13T01:52:56.334Z,66.32
2014-08-13T01:54:01.024Z,66.24
2014-08-13T01:55:05.994Z,67.01
2014-08-13T01:56:10.683Z,68.19
2014-08-13T01:57:15.358Z,68
2014-08-13T01:58:20.344Z,67.81
2014-08-13T01:59:25.331Z,68.44
2014-08-13T02:00:30.005Z,68.17
2014-08-13T02:01:34.694Z,67.89
2014-08-13T02:02:39.368Z,67.99
2014-08-13T02:03:44.058Z,68.28
2014-08-13T02:04:48.747Z,68.2
2014-08-13T02:05:53.421Z,68.19
2014-08-13T02:06:58.110Z,67.86
2014-08-13T02:08:02.784Z,68.2
2014-08-13T02:09:07.474Z,68.12
2014-08-13T02:10:12.148Z,68.18
2014-08-13T02:11:17.136Z,68.03
2014-08-13T02:12:21.810Z,67.96
2014-08-13T02:13:26.795Z,67.9
2014-08-13T02:14:31.486Z,68.37
2014-08-13T02:15:36.160Z,68.02
2014-08-13T02:16:40.849Z,68.64
2014-08-13T02:17:46.132Z,68.18
2014-08-13T02:18:50.119Z,68.32
2014-08-13T02:19:55.105Z,68.14
2014-08-13T02:20:59.795Z,68.38
2014-08-13T02:22:04.484Z,67.77
2014-08-13T02:23:09.455Z,67.14
2014-08-13T02:24:14.144Z,67.08
2014-08-13T02:25:19.131Z,67.88
2014-08-13T02:26:23.805Z,68.1
2014-08-13T02:27:28.495Z,68.37
2014-08-13T02:28:33.168Z,68.75
2014-08-13T02:29:37.859Z,68.81
2014-08-13T02:30:42.828Z,68.82
2014-08-13T02:31:47.518Z,68.57
2014-08-13T02:32:52.489Z,68.29
2014-08-13T02:33:57.475Z,68.41
2014-08-13T02:35:02.149Z,68.27
2014-08-13T02:36:06.839Z,68.37
2014-08-13T02:37:11.512Z,68.16
2014-08-13T02:38:16.203Z,68.51
2014-08-13T02:39:20.892Z,67.6
2014-08-13T02:40:26.175Z,67.45
2014-08-13T02:41:31.146Z,67.08
2014-08-13T02:42:35.836Z,66.19
2014-08-13T02:43:40.806Z,65.9
2014-08-13T02:44:45.793Z,66.52
2014-08-13T02:45:50.467Z,66.7
2014-08-13T02:46:55.453Z,67.52
2014-08-13T02:48:00.127Z,67.4
2014-08-13T02:49:04.816Z,67.73
2014-08-13T02:50:09.490Z,67.71
2014-08-13T02:51:14.180Z,67.74
2014-08-13T02:52:19.151Z,67.12
2014-08-13T02:53:23.841Z,66.89
2014-08-13T02:54:28.514Z,66.98
2014-08-13T02:55:33.203Z,66.92
2014-08-13T02:56:38.190Z,67.69
2014-08-13T02:57:43.176Z,68.7
2014-08-13T02:58:48.163Z,69.66
2014-08-13T02:59:52.852Z,68.68
2014-08-13T03:00:57.542Z,67.68
2014-08-13T03:02:02.529Z,67.01
2014-08-13T03:03:07.202Z,67.16
2014-08-13T03:04:11.925Z,67.18
2014-08-13T03:05:16.598Z,66.87
2014-08-13T03:06:21.585Z,67.09
2014-08-13T03:07:26.274Z,67.03
2014-08-13T03:08:31.262Z,67.26
2014-08-13T03:09:35.935Z,67.12
2014-08-13T03:10:40.922Z,67.09
2014-08-13T03:11:45.892Z,67.08
2014-08-13T03:12:50.878Z,67.04
2014-08-13T03:13:55.553Z,67.29
2014-08-13T03:15:00.539Z,66.5
2014-08-13T03:16:05.213Z,66.61
2014-08-13T03:17:09.903Z,66.74
2014-08-13T03:18:14.577Z,66.88
2014-08-13T03:19:19.266Z,66.77
2014-08-13T03:20:24.237Z,67.31
2014-08-13T03:21:29.223Z,67.54
2014-08-13T03:22:33.913Z,67.51
2014-08-13T03:23:38.883Z,67.25
2014-08-13T03:24:43.573Z,67.38
2014-08-13T03:25:48.544Z,68.53
2014-08-13T03:26:53.233Z,69.53
2014-08-13T03:27:57.923Z,69.06
2014-08-13T03:29:02.893Z,68.5
2014-08-13T03:30:07.583Z,68.91
2014-08-13T03:31:12.272Z,68.9
2014-08-13T03:32:16.946Z,68.44
2014-08-13T03:33:21.636Z,68.66
2014-08-13T03:34:26.310Z,68.42
2014-08-13T03:35:31.296Z,68.05
2014-08-13T03:36:35.971Z,67.91
2014-08-13T03:37:41.253Z,67.37
2014-08-13T03:38:45.943Z,67.2
2014-08-13T03:39:50.913Z,68.8
2014-08-13T03:40:55.603Z,68.9
2014-08-13T03:42:00.293Z,68.92
2014-08-13T03:43:04.966Z,68.97
2014-08-13T03:44:09.656Z,67.91
2014-08-13T03:45:14.642Z,67.1
2014-08-13T03:46:19.632Z,67.44
2014-08-13T03:47:24.305Z,67.52
2014-08-13T03:48:28.994Z,68.11
2014-08-13T03:49:33.683Z,69.18
2014-08-13T03:50:38.374Z,69.46
2014-08-13T03:51:43.062Z,69.4
2014-08-13T03:52:47.752Z,69.06
2014-08-13T03:53:52.426Z,68.8
2014-08-13T03:54:57.116Z,68.71
2014-08-13T03:56:01.789Z,68.36
2014-08-13T03:57:06.480Z,67.84
2014-08-13T03:58:11.153Z,67.31
2014-08-13T03:59:16.140Z,67.49
2014-08-13T04:00:20.814Z,67.91
2014-08-13T04:01:25.503Z,68.31
2014-08-13T04:02:30.474Z,68.51
2014-08-13T04:03:35.459Z,68.38
2014-08-13T04:04:40.447Z,68.15
2014-08-13T04:05:45.121Z,68.2
2014-08-13T04:06:49.810Z,69
2014-08-13T04:07:54.484Z,69.46
2014-08-13T04:08:59.469Z,70.51
2014-08-13T04:10:04.144Z,70.17
2014-08-13T04:11:09.131Z,69.82
2014-08-13T04:12:14.101Z,69.84
2014-08-13T04:13:18.791Z,69.58
2014-08-13T04:14:23.465Z,69.76
2014-08-13T04:15:28.170Z,69
2014-08-13T04:16:32.844Z,68.75
2014-08-13T04:17:37.533Z,69.14
2014-08-13T04:18:42.504Z,68.93
2014-08-13T04:19:47.194Z,68.54
2014-08-13T04:20:51.867Z,68.17
2014-08-13T04:21:56.557Z,67.61
2014-08-13T04:23:01.246Z,67.86
2014-08-13T04:24:05.936Z,67.72
2014-08-13T04:25:10.610Z,67.29
2014-08-13T04:26:15.300Z,67.71
2014-08-13T04:27:19.990Z,68.58
2014-08-13T04:28:24.976Z,69.59
2014-08-13T04:29:29.947Z,70.26
2014-08-13T04:30:34.636Z,70.06
2014-08-13T04:31:39.357Z,69.4
2014-08-13T04:32:44.030Z,68.89
2014-08-13T04:33:49.017Z,68.37
2014-08-13T04:34:53.690Z,68.84
2014-08-13T04:35:58.381Z,69.01
2014-08-13T04:37:03.055Z,69.02
2014-08-13T04:38:07.744Z,69.21
2014-08-13T04:39:12.715Z,69.36
2014-08-13T04:40:17.405Z,69.19
2014-08-13T04:41:22.078Z,69.16
2014-08-13T04:42:26.768Z,70.16
2014-08-13T04:43:31.741Z,70.09
2014-08-13T04:44:36.727Z,70.28
2014-08-13T04:45:41.698Z,70.21
2014-08-13T04:46:46.684Z,70.11
2014-08-13T04:47:51.359Z,69.93
2014-08-13T04:48:56.344Z,70.04
2014-08-13T04:50:01.628Z,69.62
2014-08-13T04:51:06.599Z,69.83
2014-08-13T04:52:11.289Z,69.43
2014-08-13T04:53:15.963Z,69.86
2014-08-13T04:54:20.949Z,69.88
2014-08-13T04:55:25.920Z,69.28
2014-08-13T04:56:30.608Z,69.49
2014-08-13T04:57:35.313Z,69.08
2014-08-13T04:58:39.987Z,68.72
2014-08-13T04:59:44.678Z,68.45
2014-08-13T05:00:49.663Z,69.18
2014-08-13T05:01:54.338Z,68.68
2014-08-13T05:02:59.323Z,68.11
2014-08-13T05:04:04.014Z,67.83
2014-08-13T05:05:08.688Z,67.7
2014-08-13T05:06:13.377Z,68.17
2014-08-13T05:07:18.051Z,68.5
2014-08-13T05:08:23.038Z,68.05
2014-08-13T05:09:27.727Z,68.22
2014-08-13T05:10:32.401Z,68.03
2014-08-13T05:11:37.387Z,68.74
2014-08-13T05:12:42.061Z,68.73
2014-08-13T05:13:46.751Z,68.75
2014-08-13T05:14:51.034Z,70.73
2014-08-13T05:15:56.020Z,70.57
2014-08-13T05:17:00.694Z,70.95
2014-08-13T05:18:05.384Z,71.4
2014-08-13T05:19:10.058Z,71.02
2014-08-13T05:20:14.747Z,70.7
2014-08-13T05:21:19.421Z,69.78
2014-08-13T05:22:24.111Z,69.09
2014-08-13T05:23:28.785Z,68.39
2014-08-13T05:24:33.475Z,68.21
2014-08-13T05:25:38.163Z,68.14
2014-08-13T05:26:43.135Z,69.08
2014-08-13T05:27:48.120Z,69.16
2014-08-13T05:28:53.389Z,70.24
2014-08-13T05:29:58.078Z,70.26
2014-08-13T05:31:03.066Z,70.24
2014-08-13T05:32:07.740Z,70.38
2014-08-13T05:33:12.726Z,70.32
2014-08-13T05:34:17.400Z,70.18
2014-08-13T05:35:22.090Z,70.19
2014-08-13T05:36:27.060Z,69.64
2014-08-13T05:37:32.048Z,69.92
2014-08-13T05:38:36.721Z,69.89
2014-08-13T05:39:41.707Z,69.46
2014-08-13T05:40:46.694Z,69.27
2014-08-13T05:41:51.384Z,69
2014-08-13T05:42:56.057Z,69.06
2014-08-13T05:44:01.044Z,69.48
2014-08-13T05:45:06.015Z,69.25
2014-08-13T05:46:10.703Z,69.37
2014-08-13T05:47:15.377Z,69.53
2014-08-13T05:48:20.052Z,69.25
2014-08-13T05:49:25.037Z,69
2014-08-13T05:50:30.025Z,69.04
2014-08-13T05:51:34.699Z,69.03
2014-08-13T05:52:39.387Z,68.82
2014-08-13T05:53:44.062Z,68.42
2014-08-13T05:54:48.752Z,68.63
2014-08-13T05:55:53.424Z,68.62
2014-08-13T05:56:58.115Z,68.69
2014-08-13T05:58:03.086Z,68.78
2014-08-13T05:59:07.775Z,68.69
2014-08-13T06:00:12.449Z,68.69
2014-08-13T06:01:17.435Z,68.77
2014-08-13T06:02:22.125Z,69.11
2014-08-13T06:03:26.799Z,69.19
2014-08-13T06:04:31.488Z,69.09
2014-08-13T06:05:36.475Z,68.87
2014-08-13T06:06:41.149Z,68.96
2014-08-13T06:07:45.838Z,69.11
2014-08-13T06:08:50.528Z,69.33
2014-08-13T06:09:55.217Z,68.98
2014-08-13T06:10:59.892Z,68.68
2014-08-13T06:12:04.580Z,68.78
2014-08-13T06:13:09.271Z,68.6
2014-08-13T06:14:14.242Z,68.2
2014-08-13T06:15:18.931Z,67.51
2014-08-13T06:16:23.904Z,67.61
2014-08-13T06:17:28.593Z,68.07
2014-08-13T06:18:33.298Z,68.18
2014-08-13T06:19:37.971Z,67.86
2014-08-13T06:20:42.675Z,67.22
2014-08-13T06:21:47.398Z,67.52
2014-08-13T06:22:52.130Z,67.75
2014-08-13T06:23:56.877Z,68.73
2014-08-13T06:25:01.598Z,69.98
2014-08-13T06:26:06.315Z,70.36
2014-08-13T06:27:11.004Z,70.1
2014-08-13T06:28:15.709Z,69.01
2014-08-13T06:29:20.399Z,68.26
2014-08-13T06:30:25.104Z,68.07
2014-08-13T06:31:30.380Z,68.15
2014-08-13T06:32:35.373Z,68.43
2014-08-13T06:33:40.052Z,68.21
2014-08-13T06:34:44.748Z,67.62
2014-08-13T06:35:49.724Z,67.38
2014-08-13T06:36:54.415Z,67.44
2014-08-13T06:37:59.091Z,67.72
2014-08-13T06:39:04.079Z,69.3
2014-08-13T06:40:08.755Z,69.33
2014-08-13T06:41:13.447Z,69.43
2014-08-13T06:42:18.121Z,69.78
2014-08-13T06:43:22.812Z,69.6
2014-08-13T06:44:27.486Z,70.17
2014-08-13T06:45:32.177Z,70.63
2014-08-13T06:46:36.867Z,69.74
2014-08-13T06:47:41.557Z,68.89
2014-08-13T06:48:46.528Z,68.64
2014-08-13T06:49:51.218Z,68.34
2014-08-13T06:50:55.907Z,68
2014-08-13T06:52:01.191Z,68.64
2014-08-13T06:53:05.864Z,68.89
2014-08-13T06:54:10.851Z,69.45
2014-08-13T06:55:15.541Z,69.03
2014-08-13T06:56:20.214Z,68.91
2014-08-13T06:57:25.202Z,69.49
2014-08-13T06:58:29.875Z,69.94
2014-08-13T06:59:34.565Z,70.25
2014-08-13T07:00:39.239Z,70.14
2014-08-13T07:01:43.930Z,69.78
2014-08-13T07:02:48.603Z,70.19
2014-08-13T07:03:53.293Z,69.86
2014-08-13T07:04:57.967Z,69.09
2014-08-13T07:06:02.954Z,69.39
2014-08-13T07:07:07.627Z,69.06
2014-08-13T07:08:12.316Z,68.2
2014-08-13T07:09:16.990Z,68.45
2014-08-13T07:10:21.680Z,68.81
2014-08-13T07:11:26.354Z,68.94
2014-08-13T07:12:31.043Z,69.43
2014-08-13T07:13:35.717Z,68.75
2014-08-13T07:14:40.407Z,68.43
2014-08-13T07:15:45.378Z,68.11
2014-08-13T07:16:50.068Z,68.18
2014-08-13T07:17:54.741Z,67.43
2014-08-13T07:18:59.727Z,66.63
2014-08-13T07:20:04.402Z,66.95
2014-08-13T07:21:09.388Z,67.41
2014-08-13T07:22:14.359Z,67.77
2014-08-13T07:23:19.047Z,67.11
2014-08-13T07:24:23.738Z,66.53
2014-08-13T07:25:28.412Z,67.28
2014-08-13T07:26:33.101Z,67.31
2014-08-13T07:27:38.088Z,66.23
2014-08-13T07:28:42.777Z,65.87
2014-08-13T07:29:47.451Z,65.5
2014-08-13T07:30:52.141Z,66.45
2014-08-13T07:31:56.830Z,65.66
2014-08-13T07:33:01.520Z,66.32
2014-08-13T07:34:06.803Z,66.12
2014-08-13T07:35:11.492Z,67.72
2014-08-13T07:36:15.792Z,67.55
2014-08-13T07:37:20.465Z,67.78
2014-08-13T07:38:25.451Z,66.37
2014-08-13T07:39:30.440Z,66.74
2014-08-13T07:40:35.114Z,67.08
2014-08-13T07:41:40.100Z,66.75
2014-08-13T07:42:45.071Z,67.43
2014-08-13T07:43:50.058Z,67.32
2014-08-13T07:44:55.340Z,67.46
2014-08-13T07:46:00.014Z,66.46
2014-08-13T07:47:04.705Z,65.1
2014-08-13T07:48:09.676Z,65.42
2014-08-13T07:49:14.365Z,64.78
2014-08-13T07:50:19.039Z,66.17
2014-08-13T07:51:23.728Z,67.97
2014-08-13T07:52:28.417Z,67.15
2014-08-13T07:53:32.716Z,67.37
2014-08-13T07:54:37.984Z,66.99
2014-08-13T07:55:42.673Z,67.99
2014-08-13T07:56:47.659Z,67.73
2014-08-13T07:57:52.350Z,67.28
2014-08-13T07:58:57.024Z,67.64
2014-08-13T08:00:02.010Z,67.54
2014-08-13T08:01:06.700Z,67.86
2014-08-13T08:02:11.670Z,67.84
2014-08-13T08:03:16.658Z,67.69
2014-08-13T08:04:21.924Z,67.04
2014-08-13T08:05:26.614Z,67.27
2014-08-13T08:06:31.288Z,67.68
2014-08-13T08:07:35.978Z,67.54
2014-08-13T08:08:40.651Z,67.52
2014-08-13T08:09:44.653Z,68.09
2014-08-13T08:10:49.327Z,68.32
2014-08-13T08:11:54.314Z,68.18
2014-08-13T08:12:59.004Z,68.02
2014-08-13T08:14:04.270Z,68.04
2014-08-13T08:15:08.976Z,67.86
2014-08-13T08:16:13.649Z,68.19
2014-08-13T08:17:18.339Z,68.66
2014-08-13T08:18:23.310Z,68.29
2014-08-13T08:19:28.000Z,68.07
2014-08-13T08:20:32.674Z,68.01
2014-08-13T08:21:37.364Z,68.19
2014-08-13T08:22:42.036Z,68.45
2014-08-13T08:23:46.726Z,68.56
2014-08-13T08:24:51.400Z,67.72
2014-08-13T08:25:56.684Z,67.71
2014-08-13T08:27:01.670Z,67.8
2014-08-13T08:28:06.344Z,67.83
2014-08-13T08:29:11.628Z,68.13
2014-08-13T08:30:16.317Z,67.99
2014-08-13T08:31:21.007Z,67.85
2014-08-13T08:32:25.681Z,68.47
2014-08-13T08:33:30.370Z,68.77
2014-08-13T08:34:35.059Z,68.67
2014-08-13T08:35:39.733Z,68.36
2014-08-13T08:36:44.423Z,68.11
2014-08-13T08:37:49.097Z,68.07
2014-08-13T08:38:54.084Z,67.9
2014-08-13T08:39:58.757Z,67.84
2014-08-13T08:41:03.449Z,67.62
2014-08-13T08:42:08.420Z,67.69
2014-08-13T08:43:13.109Z,66.83
2014-08-13T08:44:18.079Z,67.62
2014-08-13T08:45:22.769Z,68.29
2014-08-13T08:46:27.756Z,68.1
2014-08-13T08:47:32.430Z,67.96
2014-08-13T08:48:37.119Z,67.02
2014-08-13T08:49:41.794Z,66.57
2014-08-13T08:50:46.482Z,66.48
2014-08-13T08:51:51.156Z,65.92
2014-08-13T08:52:55.845Z,66.19
2014-08-13T08:54:00.519Z,66.14
2014-08-13T08:55:05.210Z,65.39
2014-08-13T08:56:09.898Z,65.11
2014-08-13T08:57:14.870Z,64.9
2014-08-13T08:58:19.856Z,65.71
2014-08-13T08:59:24.826Z,65.78
2014-08-13T09:00:29.813Z,65.9
2014-08-13T09:01:34.503Z,65.59
2014-08-13T09:02:39.771Z,65.14
2014-08-13T09:03:44.460Z,65.08
2014-08-13T09:04:49.430Z,65.28
2014-08-13T09:05:54.119Z,65.39
2014-08-13T09:06:58.793Z,65.8
2014-08-13T09:08:03.485Z,66.47
2014-08-13T09:09:08.159Z,65.61
2014-08-13T09:10:13.145Z,65.57
2014-08-13T09:11:17.820Z,65.4
2014-08-13T09:12:22.508Z,65.63
2014-08-13T09:13:27.198Z,65.87
2014-08-13T09:14:32.184Z,66.8
2014-08-13T09:15:36.858Z,66.88
2014-08-13T09:16:41.548Z,66.57
2014-08-13T09:17:46.237Z,67.97
2014-08-13T09:18:50.911Z,68.36
2014-08-13T09:19:55.897Z,68.43
2014-08-13T09:21:00.884Z,68.43
2014-08-13T09:22:05.573Z,68.91
2014-08-13T09:23:10.841Z,69.41
2014-08-13T09:24:15.827Z,69.16
2014-08-13T09:25:20.518Z,68.79
2014-08-13T09:26:25.192Z,68.52
2014-08-13T09:27:29.880Z,68.4
2014-08-13T09:28:34.555Z,69.82
2014-08-13T09:29:39.541Z,67.84
2014-08-13T09:30:44.231Z,68.61
2014-08-13T09:31:48.920Z,67.47
2014-08-13T09:32:53.610Z,68.67
2014-08-13T09:33:58.299Z,68.39
2014-08-13T09:35:02.973Z,67.29
2014-08-13T09:36:07.960Z,68.07
2014-08-13T09:37:12.634Z,67.76
2014-08-13T09:38:17.621Z,69.51
2014-08-13T09:39:22.309Z,69.7
2014-08-13T09:40:27.281Z,69.04
2014-08-13T09:41:32.563Z,69.8
2014-08-13T09:42:37.551Z,69.36
2014-08-13T09:43:42.225Z,69.66
2014-08-13T09:44:46.914Z,69.1
2014-08-13T09:45:51.588Z,68.12
2014-08-13T09:46:56.278Z,68.24
2014-08-13T09:48:00.951Z,69.21
2014-08-13T09:49:05.641Z,69.47
2014-08-13T09:50:10.315Z,69.47
2014-08-13T09:51:15.004Z,68.78
2014-08-13T09:52:18.991Z,68.56
2014-08-13T09:53:23.977Z,68.63
2014-08-13T09:54:28.668Z,68.36
2014-08-13T09:55:33.356Z,68.28
2014-08-13T09:56:38.031Z,67.36
2014-08-13T09:57:42.719Z,67.49
2014-08-13T09:58:47.707Z,68.58
2014-08-13T09:59:52.678Z,69.21
2014-08-13T10:00:57.664Z,68.86
2014-08-13T10:02:02.353Z,67.98
2014-08-13T10:03:07.043Z,69.16
2014-08-13T10:04:12.014Z,68.07
2014-08-13T10:05:16.703Z,68.49
2014-08-13T10:06:21.393Z,69.56
2014-08-13T10:07:26.067Z,70.12
2014-08-13T10:08:30.756Z,70.48
2014-08-13T10:09:35.446Z,70.48
2014-08-13T10:10:40.120Z,71.48
2014-08-13T10:11:44.810Z,71.02
2014-08-13T10:12:49.484Z,71.79
2014-08-13T10:13:54.470Z,71.76
2014-08-13T10:14:59.441Z,71.57
2014-08-13T10:16:04.130Z,71.38
2014-08-13T10:17:09.117Z,70.13
2014-08-13T10:18:13.791Z,70.06
2014-08-13T10:19:18.480Z,70.31
2014-08-13T10:20:23.171Z,70.68
2014-08-13T10:21:27.845Z,70.45
2014-08-13T10:22:32.534Z,70.48
2014-08-13T10:23:37.224Z,70.32
2014-08-13T10:24:42.195Z,69.46
2014-08-13T10:25:47.181Z,70.6
2014-08-13T10:26:51.870Z,71.52
2014-08-13T10:27:56.560Z,70.92
2014-08-13T10:29:01.235Z,71.85
2014-08-13T10:30:05.924Z,71.79
2014-08-13T10:31:10.613Z,71.38
2014-08-13T10:32:15.303Z,71.26
2014-08-13T10:33:19.993Z,71.69
2014-08-13T10:34:24.666Z,70.98
2014-08-13T10:35:29.653Z,72.07
2014-08-13T10:36:34.342Z,72.32
2014-08-13T10:37:39.329Z,72.41
2014-08-13T10:38:44.004Z,71.4
2014-08-13T10:39:48.989Z,71.78
2014-08-13T10:40:53.678Z,72.61
2014-08-13T10:41:58.369Z,71.86
2014-08-13T10:43:03.042Z,71.77
2014-08-13T10:44:07.732Z,71.83
2014-08-13T10:45:12.422Z,73.06
2014-08-13T10:46:17.110Z,71.81
2014-08-13T10:47:22.098Z,71.32
2014-08-13T10:48:27.068Z,70.69
2014-08-13T10:49:31.758Z,69.59
2014-08-13T10:50:36.432Z,68.68
2014-08-13T10:51:41.418Z,69.48
2014-08-13T10:52:46.108Z,70.8
2014-08-13T10:53:50.781Z,70.95
2014-08-13T10:54:55.470Z,70.46
2014-08-13T10:56:00.160Z,70.31
2014-08-13T10:57:04.849Z,70.31
2014-08-13T10:58:09.523Z,70.89
2014-08-13T10:59:14.212Z,72.07
2014-08-13T11:00:19.199Z,71.94
2014-08-13T11:01:24.172Z,71.5
2014-08-13T11:02:28.860Z,70.45
2014-08-13T11:03:33.550Z,72.49
2014-08-13T11:04:38.224Z,71.33
2014-08-13T11:05:43.210Z,71.45
2014-08-13T11:06:47.884Z,71.31
2014-08-13T11:07:52.574Z,71.69
2014-08-13T11:08:57.264Z,71.89
2014-08-13T11:10:01.939Z,70.87
2014-08-13T11:11:06.643Z,70.65
2014-08-13T11:12:11.614Z,71.81
2014-08-13T11:13:16.303Z,70.82
2014-08-13T11:14:20.992Z,71.51
2014-08-13T11:15:25.964Z,71.52
2014-08-13T11:16:30.653Z,71.49
2014-08-13T11:17:35.343Z,71.98
2014-08-13T11:18:40.330Z,71.99
2014-08-13T11:19:45.003Z,70.85
2014-08-13T11:20:49.693Z,70.8
2014-08-13T11:21:54.398Z,71.41
2014-08-13T11:22:59.072Z,71.82
2014-08-13T11:24:03.762Z,72.4
2014-08-13T11:25:08.748Z,72.56
2014-08-13T11:26:13.734Z,71.99
2014-08-13T11:27:18.722Z,71.98
2014-08-13T11:28:23.411Z,70.68
2014-08-13T11:29:28.084Z,71.12
2014-08-13T11:30:32.774Z,70.51
2014-08-13T11:31:37.464Z,70.93
2014-08-13T11:32:42.152Z,71.4
2014-08-13T11:33:47.124Z,71.64
2014-08-13T11:34:51.814Z,72.87
2014-08-13T11:35:56.503Z,72.89
2014-08-13T11:37:01.193Z,73.5
2014-08-13T11:38:05.868Z,72.91
2014-08-13T11:39:10.556Z,72.7
2014-08-13T11:40:15.246Z,72.05
2014-08-13T11:41:19.920Z,72.34
2014-08-13T11:42:24.609Z,72.2
2014-08-13T11:43:29.596Z,72.42
2014-08-13T11:44:34.286Z,71.8
2014-08-13T11:45:38.959Z,70.67
2014-08-13T11:46:43.649Z,71.36
2014-08-13T11:47:48.932Z,70.89
2014-08-13T11:48:53.622Z,70.63
2014-08-13T11:49:58.608Z,71.5
2014-08-13T11:51:03.282Z,70.68
2014-08-13T11:52:07.972Z,70.11
2014-08-13T11:53:12.661Z,70.44
2014-08-13T11:54:17.649Z,70.12
2014-08-13T11:55:22.634Z,71
2014-08-13T11:56:27.621Z,71.3
2014-08-13T11:57:32.311Z,70.8
2014-08-13T11:58:36.984Z,70.99
2014-08-13T11:59:41.690Z,69.16
2014-08-13T12:00:46.379Z,70.14
2014-08-13T12:01:51.068Z,72.47
2014-08-13T12:02:55.757Z,71.28
2014-08-13T12:04:00.448Z,70.18
2014-08-13T12:05:05.137Z,70.04
2014-08-13T12:06:10.124Z,69.33
2014-08-13T12:07:14.799Z,69.96
2014-08-13T12:08:19.487Z,70.93
2014-08-13T12:09:24.473Z,70.75
2014-08-13T12:10:29.148Z,70.39
2014-08-13T12:11:34.134Z,71.18
2014-08-13T12:12:38.809Z,72
2014-08-13T12:13:43.498Z,71.65
2014-08-13T12:14:48.483Z,70.66
2014-08-13T12:15:53.158Z,71.17
2014-08-13T12:16:58.144Z,68.94
2014-08-13T12:18:02.834Z,70.37
2014-08-13T12:19:07.805Z,70.24
2014-08-13T12:20:12.807Z,70.86
2014-08-13T12:21:17.496Z,69.67
2014-08-13T12:22:22.483Z,70.05
2014-08-13T12:23:27.172Z,70.73
2014-08-13T12:24:31.846Z,68.6
2014-08-13T12:25:36.536Z,67.76
2014-08-13T12:26:41.211Z,67.01
2014-08-13T12:27:45.899Z,67.83
2014-08-13T12:28:50.902Z,67.26
2014-08-13T12:29:54.903Z,68.23
2014-08-13T12:30:59.578Z,68.18
2014-08-13T12:32:04.267Z,68.96
2014-08-13T12:33:08.957Z,66.34
2014-08-13T12:34:13.928Z,66.75
2014-08-13T12:35:18.617Z,64.99
2014-08-13T12:36:23.307Z,66.27
2014-08-13T12:37:27.982Z,67.44
2014-08-13T12:38:32.670Z,66.11
2014-08-13T12:39:37.360Z,67.69
2014-08-13T12:40:42.050Z,67.33
2014-08-13T12:41:47.020Z,67.24
2014-08-13T12:42:51.710Z,67.19
2014-08-13T12:43:56.400Z,67.03
2014-08-13T12:45:01.073Z,69.55
2014-08-13T12:46:06.060Z,68.09
2014-08-13T12:47:10.750Z,66.88
2014-08-13T12:48:15.720Z,67.74
2014-08-13T12:49:20.410Z,68.18
2014-08-13T12:50:25.396Z,67.57
2014-08-13T12:51:30.086Z,69.59
2014-08-13T12:52:34.761Z,69.13
2014-08-13T12:53:39.746Z,68.5
2014-08-13T12:54:44.435Z,68.41
2014-08-13T12:55:49.110Z,67.56
2014-08-13T12:56:53.799Z,67.94
2014-08-13T12:57:58.473Z,66.43
2014-08-13T12:59:03.163Z,67.06
2014-08-13T13:00:07.853Z,68.81
2014-08-13T13:01:12.527Z,67.2
2014-08-13T13:02:17.216Z,68.9
2014-08-13T13:03:21.906Z,68.49
2014-08-13T13:04:26.579Z,66.93
2014-08-13T13:05:31.269Z,68.04
2014-08-13T13:06:35.958Z,66.91
2014-08-13T13:07:40.648Z,66.71
2014-08-13T13:08:45.322Z,66.97
2014-08-13T13:09:50.011Z,67.85
2014-08-13T13:10:54.998Z,68.61
2014-08-13T13:11:59.688Z,69.18
2014-08-13T13:13:04.361Z,68.15
2014-08-13T13:14:09.052Z,68.58
2014-08-13T13:15:13.741Z,69.97
2014-08-13T13:16:18.727Z,68.44
2014-08-13T13:17:23.714Z,69.5
2014-08-13T13:18:28.402Z,69.97
2014-08-13T13:19:33.374Z,70.33
2014-08-13T13:20:38.064Z,69.32
2014-08-13T13:21:42.753Z,69.42
2014-08-13T13:22:47.444Z,69.35
2014-08-13T13:23:52.132Z,71.11
2014-08-13T13:24:56.822Z,70.19
2014-08-13T13:26:01.527Z,70.06
2014-08-13T13:27:06.202Z,68.6
2014-08-13T13:28:10.890Z,68.68
2014-08-13T13:29:15.581Z,70.32
2014-08-13T13:30:20.270Z,69.58
2014-08-13T13:31:24.960Z,70.79
2014-08-13T13:32:29.649Z,69.25
2014-08-13T13:33:34.323Z,69.64
2014-08-13T13:34:39.309Z,70.09
2014-08-13T13:35:43.999Z,69.12
2014-08-13T13:36:48.970Z,70.45
2014-08-13T13:37:53.659Z,71.75
2014-08-13T13:38:58.350Z,70.52
2014-08-13T13:40:03.039Z,69.87
2014-08-13T13:41:07.712Z,71.44
2014-08-13T13:42:12.402Z,71.17
2014-08-13T13:43:17.388Z,70.33
2014-08-13T13:44:22.375Z,70.01
2014-08-13T13:45:27.064Z,70.21
2014-08-13T13:46:32.051Z,70.28
2014-08-13T13:47:37.037Z,71.36
2014-08-13T13:48:41.727Z,71.78
2014-08-13T13:49:46.416Z,70.99
2014-08-13T13:50:51.106Z,70.53
2014-08-13T13:51:56.092Z,70.24
2014-08-13T13:53:00.766Z,71.24
2014-08-13T13:54:05.768Z,70.84
2014-08-13T13:55:10.458Z,69.92
2014-08-13T13:56:15.148Z,70.53
2014-08-13T13:57:19.837Z,70.94